sensor_id;sensor_type;location;lat;lon;timestamp;P1;durP1;ratioP1;P2;durP2;ratioP2
77880;SDS011;67077;50.298;18.996;2023-10-19T00:03:34;70.90;;;33.00;;
77880;SDS011;67077;50.298;18.996;2023-10-19T00:06:02;67.10;;;29.50;;
77880;SDS011;67077;50.298;18.996;2023-10-19T00:08:33;60.70;;;28.90;;
77880;SDS011;67077;50.298;18.996;2023-10-19T00:11:08;62.90;;;30.70;;
77880;SDS011;67077;50.298;18.996;2023-10-19T00:13:38;61.80;;;29.30;;
77880;SDS011;67077;50.298;18.996;2023-10-19T00:16:07;61.40;;;29.60;;
77880;SDS011;67077;50.298;18.996;2023-10-19T00:18:44;64.40;;;30.20;;
77880;SDS011;67077;50.298;18.996;2023-10-19T00:21:16;66.70;;;31.00;;
77880;SDS011;67077;50.298;18.996;2023-10-19T00:23:57;59.80;;;28.50;;
77880;SDS011;67077;50.298;18.996;2023-10-19T00:26:27;62.90;;;29.90;;
77880;SDS011;67077;50.298;18.996;2023-10-19T00:28:57;61.20;;;29.00;;
77880;SDS011;67077;50.298;18.996;2023-10-19T00:31:26;57.30;;;29.30;;
77880;SDS011;67077;50.298;18.996;2023-10-19T00:33:55;58.80;;;29.00;;
77880;SDS011;67077;50.298;18.996;2023-10-19T00:36:24;50.20;;;26.60;;
77880;SDS011;67077;50.298;18.996;2023-10-19T00:38:53;60.90;;;28.80;;
77880;SDS011;67077;50.298;18.996;2023-10-19T00:41:23;55.20;;;27.20;;
77880;SDS011;67077;50.298;18.996;2023-10-19T00:43:59;55.00;;;27.60;;
77880;SDS011;67077;50.298;18.996;2023-10-19T00:46:40;57.60;;;27.90;;
77880;SDS011;67077;50.298;18.996;2023-10-19T00:49:11;61.00;;;28.00;;
77880;SDS011;67077;50.298;18.996;2023-10-19T00:51:43;59.30;;;28.80;;
77880;SDS011;67077;50.298;18.996;2023-10-19T00:54:14;53.80;;;26.20;;
77880;SDS011;67077;50.298;18.996;2023-10-19T00:57:06;62.40;;;29.40;;
77880;SDS011;67077;50.298;18.996;2023-10-19T00:59:41;59.60;;;28.30;;
77880;SDS011;67077;50.298;18.996;2023-10-19T01:02:32;54.50;;;28.70;;
77880;SDS011;67077;50.298;18.996;2023-10-19T01:05:00;55.80;;;27.90;;
77880;SDS011;67077;50.298;18.996;2023-10-19T01:07:33;57.30;;;28.40;;
77880;SDS011;67077;50.298;18.996;2023-10-19T01:10:06;64.90;;;30.00;;
77880;SDS011;67077;50.298;18.996;2023-10-19T01:12:49;53.70;;;27.70;;
77880;SDS011;67077;50.298;18.996;2023-10-19T01:15:21;53.50;;;27.00;;
77880;SDS011;67077;50.298;18.996;2023-10-19T01:17:56;59.00;;;29.90;;
77880;SDS011;67077;50.298;18.996;2023-10-19T01:20:26;63.60;;;30.90;;
77880;SDS011;67077;50.298;18.996;2023-10-19T01:22:57;61.70;;;31.20;;
77880;SDS011;67077;50.298;18.996;2023-10-19T01:25:45;59.60;;;30.30;;
77880;SDS011;67077;50.298;18.996;2023-10-19T01:28:20;63.10;;;31.00;;
77880;SDS011;67077;50.298;18.996;2023-10-19T01:30:53;59.10;;;29.60;;
77880;SDS011;67077;50.298;18.996;2023-10-19T01:33:21;63.20;;;30.80;;
77880;SDS011;67077;50.298;18.996;2023-10-19T01:35:50;60.50;;;30.80;;
77880;SDS011;67077;50.298;18.996;2023-10-19T01:38:37;57.90;;;30.00;;
77880;SDS011;67077;50.298;18.996;2023-10-19T01:41:08;59.30;;;29.50;;
77880;SDS011;67077;50.298;18.996;2023-10-19T01:43:47;67.40;;;32.30;;
77880;SDS011;67077;50.298;18.996;2023-10-19T01:46:18;63.90;;;32.70;;
77880;SDS011;67077;50.298;18.996;2023-10-19T01:48:53;75.20;;;34.30;;
77880;SDS011;67077;50.298;18.996;2023-10-19T01:51:26;64.90;;;32.70;;
77880;SDS011;67077;50.298;18.996;2023-10-19T01:53:56;67.90;;;33.20;;
77880;SDS011;67077;50.298;18.996;2023-10-19T01:56:25;61.50;;;30.90;;
77880;SDS011;67077;50.298;18.996;2023-10-19T01:58:53;71.30;;;34.50;;
77880;SDS011;67077;50.298;18.996;2023-10-19T02:01:22;70.50;;;33.20;;
77880;SDS011;67077;50.298;18.996;2023-10-19T02:03:58;66.80;;;33.30;;
77880;SDS011;67077;50.298;18.996;2023-10-19T02:06:29;70.60;;;34.30;;
77880;SDS011;67077;50.298;18.996;2023-10-19T02:09:05;68.60;;;34.10;;
77880;SDS011;67077;50.298;18.996;2023-10-19T02:11:47;65.90;;;34.20;;
77880;SDS011;67077;50.298;18.996;2023-10-19T02:14:17;64.40;;;33.40;;
77880;SDS011;67077;50.298;18.996;2023-10-19T02:16:48;66.00;;;32.30;;
77880;SDS011;67077;50.298;18.996;2023-10-19T02:19:21;67.80;;;33.40;;
77880;SDS011;67077;50.298;18.996;2023-10-19T02:21:53;66.50;;;32.60;;
77880;SDS011;67077;50.298;18.996;2023-10-19T02:24:26;67.40;;;32.70;;
77880;SDS011;67077;50.298;18.996;2023-10-19T02:26:55;65.40;;;32.80;;
77880;SDS011;67077;50.298;18.996;2023-10-19T02:29:24;61.70;;;31.40;;
77880;SDS011;67077;50.298;18.996;2023-10-19T02:31:53;67.60;;;32.60;;
77880;SDS011;67077;50.298;18.996;2023-10-19T02:34:23;63.20;;;31.90;;
77880;SDS011;67077;50.298;18.996;2023-10-19T02:36:52;62.50;;;29.60;;
77880;SDS011;67077;50.298;18.996;2023-10-19T02:39:20;62.30;;;30.40;;
77880;SDS011;67077;50.298;18.996;2023-10-19T02:41:49;63.40;;;31.50;;
77880;SDS011;67077;50.298;18.996;2023-10-19T02:44:18;65.20;;;32.90;;
77880;SDS011;67077;50.298;18.996;2023-10-19T02:46:50;59.50;;;31.20;;
77880;SDS011;67077;50.298;18.996;2023-10-19T02:49:22;62.10;;;30.80;;
77880;SDS011;67077;50.298;18.996;2023-10-19T02:51:50;63.50;;;32.10;;
77880;SDS011;67077;50.298;18.996;2023-10-19T02:54:20;63.20;;;30.60;;
77880;SDS011;67077;50.298;18.996;2023-10-19T02:59:22;59.00;;;30.00;;
77880;SDS011;67077;50.298;18.996;2023-10-19T03:01:51;60.60;;;30.60;;
77880;SDS011;67077;50.298;18.996;2023-10-19T03:04:29;55.60;;;28.20;;
77880;SDS011;67077;50.298;18.996;2023-10-19T03:06:57;58.00;;;30.60;;
77880;SDS011;67077;50.298;18.996;2023-10-19T03:09:25;54.30;;;28.00;;
77880;SDS011;67077;50.298;18.996;2023-10-19T03:11:53;59.00;;;29.50;;
77880;SDS011;67077;50.298;18.996;2023-10-19T03:14:38;60.70;;;29.60;;
77880;SDS011;67077;50.298;18.996;2023-10-19T03:17:06;57.10;;;29.30;;
77880;SDS011;67077;50.298;18.996;2023-10-19T03:19:36;55.00;;;28.90;;
77880;SDS011;67077;50.298;18.996;2023-10-19T03:22:04;63.30;;;32.20;;
77880;SDS011;67077;50.298;18.996;2023-10-19T03:24:34;59.10;;;30.70;;
77880;SDS011;67077;50.298;18.996;2023-10-19T03:27:12;65.00;;;32.50;;
77880;SDS011;67077;50.298;18.996;2023-10-19T03:29:49;57.50;;;31.10;;
77880;SDS011;67077;50.298;18.996;2023-10-19T03:32:41;56.80;;;30.60;;
77880;SDS011;67077;50.298;18.996;2023-10-19T03:35:09;59.30;;;30.70;;
77880;SDS011;67077;50.298;18.996;2023-10-19T03:37:43;59.00;;;31.30;;
77880;SDS011;67077;50.298;18.996;2023-10-19T03:40:14;63.00;;;30.70;;
77880;SDS011;67077;50.298;18.996;2023-10-19T03:42:49;58.90;;;30.90;;
77880;SDS011;67077;50.298;18.996;2023-10-19T03:45:20;61.10;;;33.10;;
77880;SDS011;67077;50.298;18.996;2023-10-19T03:47:51;59.10;;;30.60;;
77880;SDS011;67077;50.298;18.996;2023-10-19T03:50:22;61.00;;;32.60;;
77880;SDS011;67077;50.298;18.996;2023-10-19T03:52:51;67.20;;;33.60;;
77880;SDS011;67077;50.298;18.996;2023-10-19T03:55:19;60.80;;;31.60;;
77880;SDS011;67077;50.298;18.996;2023-10-19T03:57:51;60.70;;;31.70;;
77880;SDS011;67077;50.298;18.996;2023-10-19T04:00:22;62.80;;;32.20;;
77880;SDS011;67077;50.298;18.996;2023-10-19T04:02:52;55.20;;;28.70;;
77880;SDS011;67077;50.298;18.996;2023-10-19T04:05:21;57.90;;;29.80;;
77880;SDS011;67077;50.298;18.996;2023-10-19T04:07:50;57.30;;;30.60;;
77880;SDS011;67077;50.298;18.996;2023-10-19T04:10:22;61.40;;;31.00;;
77880;SDS011;67077;50.298;18.996;2023-10-19T04:12:58;56.50;;;30.10;;
77880;SDS011;67077;50.298;18.996;2023-10-19T04:15:28;54.10;;;29.30;;
77880;SDS011;67077;50.298;18.996;2023-10-19T04:17:57;50.20;;;26.60;;
77880;SDS011;67077;50.298;18.996;2023-10-19T04:20:28;56.60;;;30.00;;
77880;SDS011;67077;50.298;18.996;2023-10-19T04:22:57;49.50;;;27.10;;
77880;SDS011;67077;50.298;18.996;2023-10-19T04:25:26;55.10;;;28.60;;
77880;SDS011;67077;50.298;18.996;2023-10-19T04:27:55;55.20;;;28.60;;
77880;SDS011;67077;50.298;18.996;2023-10-19T04:30:25;56.10;;;27.80;;
77880;SDS011;67077;50.298;18.996;2023-10-19T04:32:53;52.20;;;27.70;;
77880;SDS011;67077;50.298;18.996;2023-10-19T04:35:25;51.60;;;27.70;;
77880;SDS011;67077;50.298;18.996;2023-10-19T04:37:57;52.70;;;27.00;;
77880;SDS011;67077;50.298;18.996;2023-10-19T04:40:27;55.90;;;28.70;;
77880;SDS011;67077;50.298;18.996;2023-10-19T04:42:55;51.80;;;27.60;;
77880;SDS011;67077;50.298;18.996;2023-10-19T04:45:23;55.50;;;28.40;;
77880;SDS011;67077;50.298;18.996;2023-10-19T04:47:52;55.50;;;26.60;;
77880;SDS011;67077;50.298;18.996;2023-10-19T04:50:21;51.40;;;26.00;;
77880;SDS011;67077;50.298;18.996;2023-10-19T04:52:49;52.50;;;25.50;;
77880;SDS011;67077;50.298;18.996;2023-10-19T04:55:17;48.90;;;25.40;;
77880;SDS011;67077;50.298;18.996;2023-10-19T04:57:46;48.60;;;25.50;;
77880;SDS011;67077;50.298;18.996;2023-10-19T05:00:14;53.10;;;26.30;;
77880;SDS011;67077;50.298;18.996;2023-10-19T05:02:43;49.00;;;25.70;;
77880;SDS011;67077;50.298;18.996;2023-10-19T05:05:11;52.30;;;27.30;;
77880;SDS011;67077;50.298;18.996;2023-10-19T05:07:44;55.00;;;27.80;;
77880;SDS011;67077;50.298;18.996;2023-10-19T05:10:13;50.80;;;26.30;;
77880;SDS011;67077;50.298;18.996;2023-10-19T05:12:41;55.20;;;26.50;;
77880;SDS011;67077;50.298;18.996;2023-10-19T05:15:09;54.40;;;25.70;;
77880;SDS011;67077;50.298;18.996;2023-10-19T05:17:37;51.00;;;25.20;;
77880;SDS011;67077;50.298;18.996;2023-10-19T05:20:06;48.30;;;24.10;;
77880;SDS011;67077;50.298;18.996;2023-10-19T05:22:35;46.60;;;24.90;;
77880;SDS011;67077;50.298;18.996;2023-10-19T05:25:03;47.40;;;25.00;;
77880;SDS011;67077;50.298;18.996;2023-10-19T05:27:32;50.90;;;25.60;;
77880;SDS011;67077;50.298;18.996;2023-10-19T05:30:00;49.70;;;25.80;;
77880;SDS011;67077;50.298;18.996;2023-10-19T05:32:28;51.70;;;26.70;;
77880;SDS011;67077;50.298;18.996;2023-10-19T05:34:58;51.70;;;27.10;;
77880;SDS011;67077;50.298;18.996;2023-10-19T05:37:26;53.10;;;27.30;;
77880;SDS011;67077;50.298;18.996;2023-10-19T05:39:57;51.20;;;25.90;;
77880;SDS011;67077;50.298;18.996;2023-10-19T05:42:26;60.70;;;27.50;;
77880;SDS011;67077;50.298;18.996;2023-10-19T05:44:57;51.30;;;26.80;;
77880;SDS011;67077;50.298;18.996;2023-10-19T05:47:25;57.00;;;27.10;;
77880;SDS011;67077;50.298;18.996;2023-10-19T05:49:53;58.00;;;28.30;;
77880;SDS011;67077;50.298;18.996;2023-10-19T05:52:21;52.90;;;28.30;;
77880;SDS011;67077;50.298;18.996;2023-10-19T05:54:50;57.10;;;29.90;;
77880;SDS011;67077;50.298;18.996;2023-10-19T05:57:18;59.40;;;31.30;;
77880;SDS011;67077;50.298;18.996;2023-10-19T05:59:47;57.90;;;31.60;;
77880;SDS011;67077;50.298;18.996;2023-10-19T06:02:15;59.80;;;33.40;;
77880;SDS011;67077;50.298;18.996;2023-10-19T06:04:45;62.20;;;34.60;;
77880;SDS011;67077;50.298;18.996;2023-10-19T06:07:14;60.20;;;33.40;;
77880;SDS011;67077;50.298;18.996;2023-10-19T06:09:42;56.30;;;32.20;;
77880;SDS011;67077;50.298;18.996;2023-10-19T06:12:10;56.30;;;30.30;;
77880;SDS011;67077;50.298;18.996;2023-10-19T06:14:39;56.40;;;31.30;;
77880;SDS011;67077;50.298;18.996;2023-10-19T06:17:07;54.80;;;29.70;;
77880;SDS011;67077;50.298;18.996;2023-10-19T06:19:35;54.10;;;30.50;;
77880;SDS011;67077;50.298;18.996;2023-10-19T06:22:05;57.00;;;29.00;;
77880;SDS011;67077;50.298;18.996;2023-10-19T06:24:33;53.70;;;29.50;;
77880;SDS011;67077;50.298;18.996;2023-10-19T06:27:02;58.70;;;29.50;;
77880;SDS011;67077;50.298;18.996;2023-10-19T06:29:31;55.10;;;29.10;;
77880;SDS011;67077;50.298;18.996;2023-10-19T06:31:59;61.80;;;32.10;;
77880;SDS011;67077;50.298;18.996;2023-10-19T06:34:28;62.20;;;31.60;;
77880;SDS011;67077;50.298;18.996;2023-10-19T06:36:57;56.80;;;28.30;;
77880;SDS011;67077;50.298;18.996;2023-10-19T06:39:27;55.60;;;26.80;;
77880;SDS011;67077;50.298;18.996;2023-10-19T06:41:55;50.70;;;26.80;;
77880;SDS011;67077;50.298;18.996;2023-10-19T06:44:23;52.70;;;25.50;;
77880;SDS011;67077;50.298;18.996;2023-10-19T06:46:52;46.60;;;24.70;;
77880;SDS011;67077;50.298;18.996;2023-10-19T06:49:20;50.10;;;24.70;;
77880;SDS011;67077;50.298;18.996;2023-10-19T06:51:50;44.40;;;23.20;;
77880;SDS011;67077;50.298;18.996;2023-10-19T06:54:18;54.70;;;25.90;;
77880;SDS011;67077;50.298;18.996;2023-10-19T06:56:46;48.40;;;24.60;;
77880;SDS011;67077;50.298;18.996;2023-10-19T06:59:14;43.10;;;23.20;;
77880;SDS011;67077;50.298;18.996;2023-10-19T07:01:43;44.60;;;23.80;;
77880;SDS011;67077;50.298;18.996;2023-10-19T07:04:11;40.50;;;22.50;;
77880;SDS011;67077;50.298;18.996;2023-10-19T07:06:39;43.80;;;22.70;;
77880;SDS011;67077;50.298;18.996;2023-10-19T07:09:08;38.80;;;22.10;;
77880;SDS011;67077;50.298;18.996;2023-10-19T07:11:38;42.10;;;22.00;;
77880;SDS011;67077;50.298;18.996;2023-10-19T07:14:06;43.80;;;22.20;;
77880;SDS011;67077;50.298;18.996;2023-10-19T07:16:35;42.10;;;21.70;;
77880;SDS011;67077;50.298;18.996;2023-10-19T07:19:04;39.60;;;20.50;;
77880;SDS011;67077;50.298;18.996;2023-10-19T07:21:33;38.80;;;20.60;;
77880;SDS011;67077;50.298;18.996;2023-10-19T07:24:04;42.90;;;21.60;;
77880;SDS011;67077;50.298;18.996;2023-10-19T07:26:37;35.80;;;19.90;;
77880;SDS011;67077;50.298;18.996;2023-10-19T07:29:20;38.70;;;20.80;;
77880;SDS011;67077;50.298;18.996;2023-10-19T07:31:48;36.30;;;20.00;;
77880;SDS011;67077;50.298;18.996;2023-10-19T07:34:16;41.40;;;20.00;;
77880;SDS011;67077;50.298;18.996;2023-10-19T07:36:45;35.40;;;20.00;;
77880;SDS011;67077;50.298;18.996;2023-10-19T07:39:13;40.40;;;21.10;;
77880;SDS011;67077;50.298;18.996;2023-10-19T07:41:47;39.00;;;20.90;;
77880;SDS011;67077;50.298;18.996;2023-10-19T07:44:15;39.90;;;20.40;;
77880;SDS011;67077;50.298;18.996;2023-10-19T07:46:43;38.30;;;20.30;;
77880;SDS011;67077;50.298;18.996;2023-10-19T07:49:12;42.90;;;21.40;;
77880;SDS011;67077;50.298;18.996;2023-10-19T07:51:49;38.70;;;20.00;;
77880;SDS011;67077;50.298;18.996;2023-10-19T07:54:18;41.40;;;21.70;;
77880;SDS011;67077;50.298;18.996;2023-10-19T07:56:48;47.30;;;21.50;;
77880;SDS011;67077;50.298;18.996;2023-10-19T07:59:18;42.10;;;21.60;;
77880;SDS011;67077;50.298;18.996;2023-10-19T08:01:46;52.60;;;25.10;;
77880;SDS011;67077;50.298;18.996;2023-10-19T08:04:14;53.00;;;26.10;;
77880;SDS011;67077;50.298;18.996;2023-10-19T08:06:42;54.30;;;25.10;;
77880;SDS011;67077;50.298;18.996;2023-10-19T08:09:10;51.70;;;25.60;;
77880;SDS011;67077;50.298;18.996;2023-10-19T08:11:39;52.40;;;24.40;;
77880;SDS011;67077;50.298;18.996;2023-10-19T08:14:10;48.10;;;25.00;;
77880;SDS011;67077;50.298;18.996;2023-10-19T08:16:38;46.10;;;24.10;;
77880;SDS011;67077;50.298;18.996;2023-10-19T08:19:06;52.10;;;26.30;;
77880;SDS011;67077;50.298;18.996;2023-10-19T08:21:35;51.90;;;26.00;;
77880;SDS011;67077;50.298;18.996;2023-10-19T08:24:03;47.00;;;25.90;;
77880;SDS011;67077;50.298;18.996;2023-10-19T08:26:32;45.90;;;25.20;;
77880;SDS011;67077;50.298;18.996;2023-10-19T08:29:00;49.90;;;24.10;;
77880;SDS011;67077;50.298;18.996;2023-10-19T08:31:29;48.10;;;23.40;;
77880;SDS011;67077;50.298;18.996;2023-10-19T08:33:57;44.30;;;23.50;;
77880;SDS011;67077;50.298;18.996;2023-10-19T08:36:25;45.30;;;24.20;;
77880;SDS011;67077;50.298;18.996;2023-10-19T08:38:57;44.80;;;23.70;;
77880;SDS011;67077;50.298;18.996;2023-10-19T08:41:26;46.40;;;23.90;;
77880;SDS011;67077;50.298;18.996;2023-10-19T08:43:54;44.00;;;23.60;;
77880;SDS011;67077;50.298;18.996;2023-10-19T08:46:24;46.70;;;23.70;;
77880;SDS011;67077;50.298;18.996;2023-10-19T08:48:53;48.40;;;25.80;;
77880;SDS011;67077;50.298;18.996;2023-10-19T08:51:24;46.90;;;23.80;;
77880;SDS011;67077;50.298;18.996;2023-10-19T08:53:53;56.00;;;25.00;;
77880;SDS011;67077;50.298;18.996;2023-10-19T08:56:22;48.00;;;24.30;;
77880;SDS011;67077;50.298;18.996;2023-10-19T08:58:51;44.80;;;24.20;;
77880;SDS011;67077;50.298;18.996;2023-10-19T09:01:20;45.50;;;23.30;;
77880;SDS011;67077;50.298;18.996;2023-10-19T09:03:51;43.30;;;23.30;;
77880;SDS011;67077;50.298;18.996;2023-10-19T09:06:20;42.80;;;22.20;;
77880;SDS011;67077;50.298;18.996;2023-10-19T09:08:48;44.50;;;22.00;;
77880;SDS011;67077;50.298;18.996;2023-10-19T09:11:17;40.10;;;21.80;;
77880;SDS011;67077;50.298;18.996;2023-10-19T09:13:50;42.60;;;22.30;;
77880;SDS011;67077;50.298;18.996;2023-10-19T09:16:20;42.00;;;22.80;;
77880;SDS011;67077;50.298;18.996;2023-10-19T09:18:50;38.80;;;21.50;;
77880;SDS011;67077;50.298;18.996;2023-10-19T09:21:24;46.40;;;23.40;;
77880;SDS011;67077;50.298;18.996;2023-10-19T09:23:52;41.50;;;22.10;;
77880;SDS011;67077;50.298;18.996;2023-10-19T09:26:23;37.90;;;21.90;;
77880;SDS011;67077;50.298;18.996;2023-10-19T09:28:53;44.20;;;21.90;;
77880;SDS011;67077;50.298;18.996;2023-10-19T09:31:24;43.50;;;22.40;;
77880;SDS011;67077;50.298;18.996;2023-10-19T09:33:52;41.10;;;21.30;;
77880;SDS011;67077;50.298;18.996;2023-10-19T09:36:22;43.90;;;23.20;;
77880;SDS011;67077;50.298;18.996;2023-10-19T09:38:54;39.60;;;22.60;;
77880;SDS011;67077;50.298;18.996;2023-10-19T09:41:25;35.50;;;21.20;;
77880;SDS011;67077;50.298;18.996;2023-10-19T09:44:04;39.50;;;21.80;;
77880;SDS011;67077;50.298;18.996;2023-10-19T09:46:38;39.60;;;22.20;;
77880;SDS011;67077;50.298;18.996;2023-10-19T09:49:08;48.90;;;23.20;;
77880;SDS011;67077;50.298;18.996;2023-10-19T09:51:40;42.70;;;23.20;;
77880;SDS011;67077;50.298;18.996;2023-10-19T09:54:57;44.10;;;22.20;;
77880;SDS011;67077;50.298;18.996;2023-10-19T09:57:18;40.90;;;22.10;;
77880;SDS011;67077;50.298;18.996;2023-10-19T09:59:56;45.40;;;22.90;;
77880;SDS011;67077;50.298;18.996;2023-10-19T10:02:36;50.10;;;24.50;;
77880;SDS011;67077;50.298;18.996;2023-10-19T10:05:04;42.40;;;23.00;;
77880;SDS011;67077;50.298;18.996;2023-10-19T10:07:33;45.70;;;24.50;;
77880;SDS011;67077;50.298;18.996;2023-10-19T10:10:02;43.10;;;23.40;;
77880;SDS011;67077;50.298;18.996;2023-10-19T10:12:32;48.30;;;25.30;;
77880;SDS011;67077;50.298;18.996;2023-10-19T10:15:03;50.30;;;25.70;;
77880;SDS011;67077;50.298;18.996;2023-10-19T10:17:36;47.40;;;26.00;;
77880;SDS011;67077;50.298;18.996;2023-10-19T10:22:45;53.30;;;27.10;;
77880;SDS011;67077;50.298;18.996;2023-10-19T10:25:59;46.30;;;25.40;;
77880;SDS011;67077;50.298;18.996;2023-10-19T10:28:28;49.70;;;25.90;;
77880;SDS011;67077;50.298;18.996;2023-10-19T10:31:13;45.70;;;26.00;;
77880;SDS011;67077;50.298;18.996;2023-10-19T10:33:48;47.90;;;25.80;;
77880;SDS011;67077;50.298;18.996;2023-10-19T10:36:19;48.80;;;26.60;;
77880;SDS011;67077;50.298;18.996;2023-10-19T10:38:50;40.70;;;23.60;;
77880;SDS011;67077;50.298;18.996;2023-10-19T10:41:23;38.50;;;22.30;;
77880;SDS011;67077;50.298;18.996;2023-10-19T10:43:57;36.20;;;19.80;;
77880;SDS011;67077;50.298;18.996;2023-10-19T10:46:27;37.70;;;20.30;;
77880;SDS011;67077;50.298;18.996;2023-10-19T10:48:59;39.20;;;20.10;;
77880;SDS011;67077;50.298;18.996;2023-10-19T10:51:30;36.00;;;20.50;;
77880;SDS011;67077;50.298;18.996;2023-10-19T10:53:58;36.50;;;19.70;;
77880;SDS011;67077;50.298;18.996;2023-10-19T10:56:26;37.50;;;19.10;;
77880;SDS011;67077;50.298;18.996;2023-10-19T10:58:56;32.30;;;17.50;;
77880;SDS011;67077;50.298;18.996;2023-10-19T11:01:28;34.60;;;19.00;;
77880;SDS011;67077;50.298;18.996;2023-10-19T11:04:07;34.40;;;18.60;;
77880;SDS011;67077;50.298;18.996;2023-10-19T11:06:51;32.90;;;18.10;;
77880;SDS011;67077;50.298;18.996;2023-10-19T11:09:23;32.80;;;18.30;;
77880;SDS011;67077;50.298;18.996;2023-10-19T11:11:52;30.10;;;18.20;;
77880;SDS011;67077;50.298;18.996;2023-10-19T11:14:24;30.70;;;16.70;;
77880;SDS011;67077;50.298;18.996;2023-10-19T11:16:53;31.00;;;17.20;;
77880;SDS011;67077;50.298;18.996;2023-10-19T11:19:21;32.80;;;16.90;;
77880;SDS011;67077;50.298;18.996;2023-10-19T11:22:09;31.90;;;17.20;;
77880;SDS011;67077;50.298;18.996;2023-10-19T11:24:38;28.30;;;16.50;;
77880;SDS011;67077;50.298;18.996;2023-10-19T11:27:08;29.00;;;15.90;;
77880;SDS011;67077;50.298;18.996;2023-10-19T11:29:38;30.70;;;16.30;;
77880;SDS011;67077;50.298;18.996;2023-10-19T11:32:06;27.40;;;15.70;;
77880;SDS011;67077;50.298;18.996;2023-10-19T11:34:35;30.60;;;16.50;;
77880;SDS011;67077;50.298;18.996;2023-10-19T11:37:03;30.00;;;17.70;;
77880;SDS011;67077;50.298;18.996;2023-10-19T11:39:33;30.40;;;16.70;;
77880;SDS011;67077;50.298;18.996;2023-10-19T11:42:01;26.80;;;15.90;;
77880;SDS011;67077;50.298;18.996;2023-10-19T11:44:29;27.70;;;16.30;;
77880;SDS011;67077;50.298;18.996;2023-10-19T11:46:57;28.60;;;16.70;;
77880;SDS011;67077;50.298;18.996;2023-10-19T11:49:25;28.10;;;16.70;;
77880;SDS011;67077;50.298;18.996;2023-10-19T11:51:53;28.60;;;16.60;;
77880;SDS011;67077;50.298;18.996;2023-10-19T11:54:22;28.40;;;16.00;;
77880;SDS011;67077;50.298;18.996;2023-10-19T11:56:50;28.30;;;15.80;;
77880;SDS011;67077;50.298;18.996;2023-10-19T11:59:18;28.00;;;16.10;;
77880;SDS011;67077;50.298;18.996;2023-10-19T12:01:47;35.70;;;18.00;;
77880;SDS011;67077;50.298;18.996;2023-10-19T12:04:17;28.70;;;16.30;;
77880;SDS011;67077;50.298;18.996;2023-10-19T12:06:46;30.60;;;17.70;;
77880;SDS011;67077;50.298;18.996;2023-10-19T12:09:15;27.70;;;16.90;;
77880;SDS011;67077;50.298;18.996;2023-10-19T12:11:43;33.80;;;19.00;;
77880;SDS011;67077;50.298;18.996;2023-10-19T12:14:12;36.40;;;20.80;;
77880;SDS011;67077;50.298;18.996;2023-10-19T12:16:42;38.30;;;22.40;;
77880;SDS011;67077;50.298;18.996;2023-10-19T12:19:11;41.40;;;24.00;;
77880;SDS011;67077;50.298;18.996;2023-10-19T12:21:39;49.10;;;27.60;;
77880;SDS011;67077;50.298;18.996;2023-10-19T12:24:09;48.70;;;27.60;;
77880;SDS011;67077;50.298;18.996;2023-10-19T12:26:38;49.40;;;28.40;;
77880;SDS011;67077;50.298;18.996;2023-10-19T12:29:08;48.10;;;26.90;;
77880;SDS011;67077;50.298;18.996;2023-10-19T12:31:39;47.80;;;27.60;;
77880;SDS011;67077;50.298;18.996;2023-10-19T12:34:07;51.20;;;29.10;;
77880;SDS011;67077;50.298;18.996;2023-10-19T12:36:36;43.40;;;26.10;;
77880;SDS011;67077;50.298;18.996;2023-10-19T12:39:04;48.10;;;27.20;;
77880;SDS011;67077;50.298;18.996;2023-10-19T12:41:36;46.60;;;27.90;;
77880;SDS011;67077;50.298;18.996;2023-10-19T12:44:04;54.30;;;28.80;;
77880;SDS011;67077;50.298;18.996;2023-10-19T12:46:40;49.20;;;29.20;;
77880;SDS011;67077;50.298;18.996;2023-10-19T12:49:08;55.00;;;34.40;;
77880;SDS011;67077;50.298;18.996;2023-10-19T12:51:42;64.90;;;38.80;;
77880;SDS011;67077;50.298;18.996;2023-10-19T12:54:12;69.60;;;40.10;;
77880;SDS011;67077;50.298;18.996;2023-10-19T12:56:42;66.70;;;40.00;;
77880;SDS011;67077;50.298;18.996;2023-10-19T12:59:10;66.60;;;41.40;;
77880;SDS011;67077;50.298;18.996;2023-10-19T13:01:39;69.00;;;40.80;;
77880;SDS011;67077;50.298;18.996;2023-10-19T13:04:08;67.00;;;39.40;;
77880;SDS011;67077;50.298;18.996;2023-10-19T13:06:44;68.70;;;41.70;;
77880;SDS011;67077;50.298;18.996;2023-10-19T13:09:18;58.60;;;35.30;;
77880;SDS011;67077;50.298;18.996;2023-10-19T13:11:58;51.90;;;31.50;;
77880;SDS011;67077;50.298;18.996;2023-10-19T13:14:27;53.00;;;31.80;;
77880;SDS011;67077;50.298;18.996;2023-10-19T13:16:55;55.10;;;32.50;;
77880;SDS011;67077;50.298;18.996;2023-10-19T13:19:23;55.60;;;31.90;;
77880;SDS011;67077;50.298;18.996;2023-10-19T13:21:53;51.30;;;29.80;;
77880;SDS011;67077;50.298;18.996;2023-10-19T13:24:22;48.80;;;29.90;;
77880;SDS011;67077;50.298;18.996;2023-10-19T13:26:52;52.30;;;29.50;;
77880;SDS011;67077;50.298;18.996;2023-10-19T13:29:21;46.10;;;26.00;;
77880;SDS011;67077;50.298;18.996;2023-10-19T13:31:51;42.50;;;25.70;;
77880;SDS011;67077;50.298;18.996;2023-10-19T13:34:20;47.20;;;25.70;;
77880;SDS011;67077;50.298;18.996;2023-10-19T13:36:49;45.80;;;26.40;;
77880;SDS011;67077;50.298;18.996;2023-10-19T13:39:19;44.50;;;26.40;;
77880;SDS011;67077;50.298;18.996;2023-10-19T13:41:47;44.10;;;27.00;;
77880;SDS011;67077;50.298;18.996;2023-10-19T13:44:16;43.10;;;26.40;;
77880;SDS011;67077;50.298;18.996;2023-10-19T13:46:46;46.20;;;26.70;;
77880;SDS011;67077;50.298;18.996;2023-10-19T13:49:15;48.30;;;28.30;;
77880;SDS011;67077;50.298;18.996;2023-10-19T13:51:46;49.20;;;28.00;;
77880;SDS011;67077;50.298;18.996;2023-10-19T13:54:15;46.30;;;27.50;;
77880;SDS011;67077;50.298;18.996;2023-10-19T13:56:44;50.20;;;28.60;;
77880;SDS011;67077;50.298;18.996;2023-10-19T13:59:12;47.40;;;27.70;;
77880;SDS011;67077;50.298;18.996;2023-10-19T14:01:42;46.30;;;26.10;;
77880;SDS011;67077;50.298;18.996;2023-10-19T14:04:11;44.30;;;26.40;;
77880;SDS011;67077;50.298;18.996;2023-10-19T14:06:41;45.90;;;26.90;;
77880;SDS011;67077;50.298;18.996;2023-10-19T14:09:10;45.70;;;25.40;;
77880;SDS011;67077;50.298;18.996;2023-10-19T14:11:40;42.90;;;24.80;;
77880;SDS011;67077;50.298;18.996;2023-10-19T14:14:08;43.20;;;25.60;;
77880;SDS011;67077;50.298;18.996;2023-10-19T14:16:38;43.70;;;24.30;;
77880;SDS011;67077;50.298;18.996;2023-10-19T14:19:07;40.90;;;24.80;;
77880;SDS011;67077;50.298;18.996;2023-10-19T14:21:36;40.60;;;24.70;;
77880;SDS011;67077;50.298;18.996;2023-10-19T14:24:07;46.60;;;25.70;;
77880;SDS011;67077;50.298;18.996;2023-10-19T14:26:36;43.40;;;25.50;;
77880;SDS011;67077;50.298;18.996;2023-10-19T14:29:08;43.80;;;25.30;;
77880;SDS011;67077;50.298;18.996;2023-10-19T14:31:36;42.80;;;24.40;;
77880;SDS011;67077;50.298;18.996;2023-10-19T14:34:04;39.50;;;25.00;;
77880;SDS011;67077;50.298;18.996;2023-10-19T14:36:32;39.00;;;25.00;;